sensor_id;sensor_type;location;lat;lon;timestamp;pressure;altitude;pressure_sealevel;temperature;humidity
20628;BME280;10473;42.734;24.258;2024-01-15T00:00:42;91565.97;;;-3.78;63.85
20628;BME280;10473;42.734;24.258;2024-01-15T00:03:08;91562.25;;;-3.93;64.61
20628;BME280;10473;42.734;24.258;2024-01-15T00:05:33;91562.53;;;-4.06;65.12
20628;BME280;10473;42.734;24.258;2024-01-15T00:07:59;91568.78;;;-4.00;64.45
20628;BME280;10473;42.734;24.258;2024-01-15T00:10:24;91553.88;;;-3.94;64.49
20628;BME280;10473;42.734;24.258;2024-01-15T00:12:50;91564.06;;;-3.56;63.81
20628;BME280;10473;42.734;24.258;2024-01-15T00:15:15;91555.88;;;-3.87;64.51
20628;BME280;10473;42.734;24.258;2024-01-15T00:17:41;91555.97;;;-3.60;63.84
20628;BME280;10473;42.734;24.258;2024-01-15T00:20:07;91548.94;;;-3.76;64.09
20628;BME280;10473;42.734;24.258;2024-01-15T00:22:32;91545.75;;;-3.97;64.41
20628;BME280;10473;42.734;24.258;2024-01-15T00:25:01;91546.16;;;-3.82;64.08
20628;BME280;10473;42.734;24.258;2024-01-15T00:27:26;91553.47;;;-3.89;64.36
20628;BME280;10473;42.734;24.258;2024-01-15T00:29:52;91558.09;;;-3.65;63.68
20628;BME280;10473;42.734;24.258;2024-01-15T00:32:17;91544.00;;;-3.58;63.75
20628;BME280;10473;42.734;24.258;2024-01-15T00:34:43;91550.16;;;-3.89;64.54
20628;BME280;10473;42.734;24.258;2024-01-15T00:37:08;91546.31;;;-4.13;65.98
20628;BME280;10473;42.734;24.258;2024-01-15T00:39:34;91551.34;;;-3.84;64.99
20628;BME280;10473;42.734;24.258;2024-01-15T00:41:59;91559.34;;;-4.08;65.75
20628;BME280;10473;42.734;24.258;2024-01-15T00:44:25;91548.72;;;-3.92;66.19
20628;BME280;10473;42.734;24.258;2024-01-15T00:46:50;91552.00;;;-4.01;66.35
20628;BME280;10473;42.734;24.258;2024-01-15T00:49:16;91546.44;;;-4.05;66.21
20628;BME280;10473;42.734;24.258;2024-01-15T00:51:41;91545.91;;;-3.99;66.24
20628;BME280;10473;42.734;24.258;2024-01-15T00:54:07;91541.66;;;-3.98;66.04
20628;BME280;10473;42.734;24.258;2024-01-15T00:56:33;91544.84;;;-3.96;66.53
20628;BME280;10473;42.734;24.258;2024-01-15T00:58:59;91548.44;;;-3.99;66.45
20628;BME280;10473;42.734;24.258;2024-01-15T01:01:25;91546.03;;;-4.10;67.00
20628;BME280;10473;42.734;24.258;2024-01-15T01:03:50;91537.28;;;-4.16;66.75
20628;BME280;10473;42.734;24.258;2024-01-15T01:06:15;91542.47;;;-4.07;67.07
20628;BME280;10473;42.734;24.258;2024-01-15T01:08:41;91540.19;;;-3.81;66.60
20628;BME280;10473;42.734;24.258;2024-01-15T01:11:06;91541.66;;;-4.08;67.33
20628;BME280;10473;42.734;24.258;2024-01-15T01:13:33;91543.78;;;-3.94;67.92
20628;BME280;10473;42.734;24.258;2024-01-15T01:15:58;91539.66;;;-3.75;67.14
20628;BME280;10473;42.734;24.258;2024-01-15T01:18:24;91525.00;;;-3.72;67.64
20628;BME280;10473;42.734;24.258;2024-01-15T01:20:49;91528.09;;;-3.87;66.70
20628;BME280;10473;42.734;24.258;2024-01-15T01:23:15;91530.63;;;-4.17;67.74
20628;BME280;10473;42.734;24.258;2024-01-15T01:25:40;91534.19;;;-3.80;67.88
20628;BME280;10473;42.734;24.258;2024-01-15T01:28:06;91531.41;;;-4.06;68.19
20628;BME280;10473;42.734;24.258;2024-01-15T01:30:31;91531.41;;;-4.06;68.23
20628;BME280;10473;42.734;24.258;2024-01-15T01:32:57;91534.31;;;-4.01;67.40
20628;BME280;10473;42.734;24.258;2024-01-15T01:35:22;91526.66;;;-4.09;67.85
20628;BME280;10473;42.734;24.258;2024-01-15T01:37:48;91522.34;;;-3.80;67.61
20628;BME280;10473;42.734;24.258;2024-01-15T01:40:13;91534.72;;;-3.77;66.92
20628;BME280;10473;42.734;24.258;2024-01-15T01:42:39;91527.66;;;-3.83;66.98
20628;BME280;10473;42.734;24.258;2024-01-15T01:45:04;91537.00;;;-3.83;67.93
20628;BME280;10473;42.734;24.258;2024-01-15T01:47:30;91531.56;;;-3.98;68.10
20628;BME280;10473;42.734;24.258;2024-01-15T01:49:56;91523.44;;;-3.92;68.01
20628;BME280;10473;42.734;24.258;2024-01-15T01:52:22;91534.47;;;-4.03;67.97
20628;BME280;10473;42.734;24.258;2024-01-15T01:54:47;91530.47;;;-3.86;68.11
20628;BME280;10473;42.734;24.258;2024-01-15T01:57:13;91531.81;;;-3.92;68.12
20628;BME280;10473;42.734;24.258;2024-01-15T01:59:39;91523.81;;;-3.87;68.76
20628;BME280;10473;42.734;24.258;2024-01-15T02:02:05;91515.69;;;-3.90;68.41
20628;BME280;10473;42.734;24.258;2024-01-15T02:04:32;91496.94;;;-3.78;68.33
20628;BME280;10473;42.734;24.258;2024-01-15T02:06:59;91502.47;;;-3.55;68.17
20628;BME280;10473;42.734;24.258;2024-01-15T02:09:25;91509.56;;;-3.78;68.46
20628;BME280;10473;42.734;24.258;2024-01-15T02:11:51;91510.16;;;-4.14;70.19
20628;BME280;10473;42.734;24.258;2024-01-15T02:14:16;91512.69;;;-4.14;69.31
20628;BME280;10473;42.734;24.258;2024-01-15T02:16:42;91501.22;;;-4.08;69.48
20628;BME280;10473;42.734;24.258;2024-01-15T02:19:07;91503.59;;;-3.87;69.47
20628;BME280;10473;42.734;24.258;2024-01-15T02:21:33;91509.19;;;-3.93;69.14
20628;BME280;10473;42.734;24.258;2024-01-15T02:23:59;91495.59;;;-3.82;68.58
20628;BME280;10473;42.734;24.258;2024-01-15T02:26:24;91501.56;;;-3.64;66.81
20628;BME280;10473;42.734;24.258;2024-01-15T02:28:50;91508.88;;;-3.61;66.33
20628;BME280;10473;42.734;24.258;2024-01-15T02:31:16;91500.06;;;-3.57;66.00
20628;BME280;10473;42.734;24.258;2024-01-15T02:33:42;91493.53;;;-3.49;65.41
20628;BME280;10473;42.734;24.258;2024-01-15T02:36:08;91498.63;;;-3.59;66.37
20628;BME280;10473;42.734;24.258;2024-01-15T02:38:33;91482.25;;;-3.65;66.20
20628;BME280;10473;42.734;24.258;2024-01-15T02:40:59;91485.00;;;-3.86;67.87
20628;BME280;10473;42.734;24.258;2024-01-15T02:43:24;91483.22;;;-3.76;68.41
20628;BME280;10473;42.734;24.258;2024-01-15T02:45:50;91470.94;;;-3.61;68.79
20628;BME280;10473;42.734;24.258;2024-01-15T02:48:15;91469.97;;;-3.87;69.82
20628;BME280;10473;42.734;24.258;2024-01-15T02:50:41;91474.34;;;-3.89;69.44
20628;BME280;10473;42.734;24.258;2024-01-15T02:53:06;91475.03;;;-3.97;69.73
20628;BME280;10473;42.734;24.258;2024-01-15T02:55:32;91481.03;;;-3.98;69.77
20628;BME280;10473;42.734;24.258;2024-01-15T02:57:57;91478.25;;;-4.05;69.99
20628;BME280;10473;42.734;24.258;2024-01-15T03:00:23;91471.56;;;-4.06;70.50
20628;BME280;10473;42.734;24.258;2024-01-15T03:02:50;91457.44;;;-3.79;68.62
20628;BME280;10473;42.734;24.258;2024-01-15T03:05:16;91469.72;;;-3.94;69.14
20628;BME280;10473;42.734;24.258;2024-01-15T03:07:42;91461.69;;;-3.80;68.58
20628;BME280;10473;42.734;24.258;2024-01-15T03:10:08;91457.13;;;-3.66;68.59
20628;BME280;10473;42.734;24.258;2024-01-15T03:12:34;91465.72;;;-3.97;69.50
20628;BME280;10473;42.734;24.258;2024-01-15T03:14:59;91471.28;;;-3.83;69.71
20628;BME280;10473;42.734;24.258;2024-01-15T03:17:25;91469.25;;;-3.80;69.89
20628;BME280;10473;42.734;24.258;2024-01-15T03:19:50;91462.75;;;-3.82;69.48
20628;BME280;10473;42.734;24.258;2024-01-15T03:22:16;91475.50;;;-3.84;69.82
20628;BME280;10473;42.734;24.258;2024-01-15T03:24:43;91466.28;;;-4.13;70.84
20628;BME280;10473;42.734;24.258;2024-01-15T03:27:08;91462.03;;;-4.22;71.60
20628;BME280;10473;42.734;24.258;2024-01-15T03:29:34;91469.09;;;-4.16;71.32
20628;BME280;10473;42.734;24.258;2024-01-15T03:31:59;91467.06;;;-4.02;71.58
20628;BME280;10473;42.734;24.258;2024-01-15T03:34:25;91451.91;;;-4.02;70.09
20628;BME280;10473;42.734;24.258;2024-01-15T03:36:50;91466.69;;;-4.07;71.28
20628;BME280;10473;42.734;24.258;2024-01-15T03:39:17;91465.72;;;-4.06;70.29
20628;BME280;10473;42.734;24.258;2024-01-15T03:41:42;91460.81;;;-4.08;70.72
20628;BME280;10473;42.734;24.258;2024-01-15T03:44:08;91459.91;;;-4.17;71.38
20628;BME280;10473;42.734;24.258;2024-01-15T03:46:35;91451.91;;;-4.02;71.21
20628;BME280;10473;42.734;24.258;2024-01-15T03:49:00;91432.22;;;-3.99;72.12
20628;BME280;10473;42.734;24.258;2024-01-15T03:51:26;91417.06;;;-3.99;72.14
20628;BME280;10473;42.734;24.258;2024-01-15T03:53:51;91437.16;;;-4.17;72.49
20628;BME280;10473;42.734;24.258;2024-01-15T03:56:17;91426.69;;;-4.22;72.24
20628;BME280;10473;42.734;24.258;2024-01-15T03:58:42;91443.25;;;-4.00;71.48
20628;BME280;10473;42.734;24.258;2024-01-15T04:01:09;91435.91;;;-3.83;71.80
20628;BME280;10473;42.734;24.258;2024-01-15T04:03:35;91429.78;;;-3.81;69.87
20628;BME280;10473;42.734;24.258;2024-01-15T04:06:00;91438.84;;;-3.98;70.98
20628;BME280;10473;42.734;24.258;2024-01-15T04:08:26;91438.59;;;-3.95;70.93
20628;BME280;10473;42.734;24.258;2024-01-15T04:10:51;91434.88;;;-4.10;71.50
20628;BME280;10473;42.734;24.258;2024-01-15T04:13:16;91424.22;;;-3.94;71.12
20628;BME280;10473;42.734;24.258;2024-01-15T04:15:42;91430.31;;;-3.77;70.02
20628;BME280;10473;42.734;24.258;2024-01-15T04:18:08;91416.91;;;-3.97;70.63
20628;BME280;10473;42.734;24.258;2024-01-15T04:20:33;91422.72;;;-3.87;71.40
20628;BME280;10473;42.734;24.258;2024-01-15T04:22:59;91407.81;;;-3.80;71.21
20628;BME280;10473;42.734;24.258;2024-01-15T04:25:24;91405.34;;;-4.00;72.53
20628;BME280;10473;42.734;24.258;2024-01-15T04:27:50;91402.69;;;-3.98;72.20
20628;BME280;10473;42.734;24.258;2024-01-15T04:30:15;91407.41;;;-3.76;72.58
20628;BME280;10473;42.734;24.258;2024-01-15T04:32:41;91407.63;;;-3.69;72.53
20628;BME280;10473;42.734;24.258;2024-01-15T04:35:06;91412.13;;;-4.00;73.30
20628;BME280;10473;42.734;24.258;2024-01-15T04:37:32;91413.56;;;-3.88;71.84
20628;BME280;10473;42.734;24.258;2024-01-15T04:39:58;91420.16;;;-3.67;70.15
20628;BME280;10473;42.734;24.258;2024-01-15T04:42:23;91409.56;;;-3.81;70.39
20628;BME280;10473;42.734;24.258;2024-01-15T04:44:49;91414.53;;;-3.61;70.40
20628;BME280;10473;42.734;24.258;2024-01-15T04:47:15;91401.66;;;-3.68;69.06
20628;BME280;10473;42.734;24.258;2024-01-15T04:49:40;91411.28;;;-3.81;70.08
20628;BME280;10473;42.734;24.258;2024-01-15T04:52:06;91415.88;;;-4.04;71.07
20628;BME280;10473;42.734;24.258;2024-01-15T04:54:32;91410.69;;;-4.13;71.21
20628;BME280;10473;42.734;24.258;2024-01-15T04:56:57;91409.13;;;-4.14;71.86
20628;BME280;10473;42.734;24.258;2024-01-15T04:59:23;91410.38;;;-3.90;72.05
20628;BME280;10473;42.734;24.258;2024-01-15T05:01:48;91408.66;;;-3.99;72.43
20628;BME280;10473;42.734;24.258;2024-01-15T05:04:14;91405.09;;;-4.06;73.81
20628;BME280;10473;42.734;24.258;2024-01-15T05:06:40;91398.13;;;-3.85;72.43
20628;BME280;10473;42.734;24.258;2024-01-15T05:09:05;91406.53;;;-3.94;72.79
20628;BME280;10473;42.734;24.258;2024-01-15T05:11:32;91403.78;;;-3.73;72.35
20628;BME280;10473;42.734;24.258;2024-01-15T05:13:57;91401.53;;;-3.66;72.50
20628;BME280;10473;42.734;24.258;2024-01-15T05:16:23;91404.38;;;-3.89;73.94
20628;BME280;10473;42.734;24.258;2024-01-15T05:18:49;91402.53;;;-3.87;73.38
20628;BME280;10473;42.734;24.258;2024-01-15T05:21:14;91399.22;;;-3.97;73.17
20628;BME280;10473;42.734;24.258;2024-01-15T05:23:39;91403.78;;;-4.10;73.42
20628;BME280;10473;42.734;24.258;2024-01-15T05:26:05;91403.00;;;-4.11;73.52
20628;BME280;10473;42.734;24.258;2024-01-15T05:28:30;91396.81;;;-3.89;74.00
20628;BME280;10473;42.734;24.258;2024-01-15T05:30:56;91403.06;;;-3.93;72.43
20628;BME280;10473;42.734;24.258;2024-01-15T05:33:23;91402.38;;;-3.85;73.70
20628;BME280;10473;42.734;24.258;2024-01-15T05:35:48;91397.56;;;-3.79;72.46
20628;BME280;10473;42.734;24.258;2024-01-15T05:38:16;91398.31;;;-4.06;73.83
20628;BME280;10473;42.734;24.258;2024-01-15T05:40:41;91385.69;;;-4.06;73.78
20628;BME280;10473;42.734;24.258;2024-01-15T05:43:07;91389.41;;;-4.00;73.66
20628;BME280;10473;42.734;24.258;2024-01-15T05:45:34;91389.28;;;-4.08;74.15
20628;BME280;10473;42.734;24.258;2024-01-15T05:48:00;91388.84;;;-3.94;74.13
20628;BME280;10473;42.734;24.258;2024-01-15T05:50:26;91398.78;;;-3.83;72.53
20628;BME280;10473;42.734;24.258;2024-01-15T05:52:52;91384.66;;;-4.13;73.55
20628;BME280;10473;42.734;24.258;2024-01-15T05:55:17;91395.97;;;-3.80;72.01
20628;BME280;10473;42.734;24.258;2024-01-15T05:57:44;91385.06;;;-3.80;72.73
20628;BME280;10473;42.734;24.258;2024-01-15T06:00:10;91386.84;;;-3.63;73.69
20628;BME280;10473;42.734;24.258;2024-01-15T06:02:39;91393.44;;;-3.80;73.52
20628;BME280;10473;42.734;24.258;2024-01-15T06:05:05;91385.50;;;-3.57;73.47
20628;BME280;10473;42.734;24.258;2024-01-15T06:07:33;91382.81;;;-3.28;72.40
20628;BME280;10473;42.734;24.258;2024-01-15T06:09:59;91376.50;;;-3.42;72.50
20628;BME280;10473;42.734;24.258;2024-01-15T06:12:24;91386.53;;;-3.50;73.57
20628;BME280;10473;42.734;24.258;2024-01-15T06:14:49;91387.66;;;-3.35;71.81
20628;BME280;10473;42.734;24.258;2024-01-15T06:17:15;91387.91;;;-3.10;72.11
20628;BME280;10473;42.734;24.258;2024-01-15T06:19:40;91381.25;;;-3.11;71.75
20628;BME280;10473;42.734;24.258;2024-01-15T06:22:06;91393.81;;;-3.19;71.51
20628;BME280;10473;42.734;24.258;2024-01-15T06:24:31;91382.00;;;-3.01;71.45
20628;BME280;10473;42.734;24.258;2024-01-15T06:26:57;91394.41;;;-2.72;70.48
20628;BME280;10473;42.734;24.258;2024-01-15T06:29:25;91388.41;;;-2.53;70.61
20628;BME280;10473;42.734;24.258;2024-01-15T06:31:51;91365.19;;;-2.22;69.40
20628;BME280;10473;42.734;24.258;2024-01-15T06:34:16;91371.75;;;-2.11;68.73
20628;BME280;10473;42.734;24.258;2024-01-15T06:36:42;91374.75;;;-2.16;69.79
20628;BME280;10473;42.734;24.258;2024-01-15T06:39:08;91372.31;;;-2.25;69.80
20628;BME280;10473;42.734;24.258;2024-01-15T06:41:33;91364.94;;;-2.11;70.85
20628;BME280;10473;42.734;24.258;2024-01-15T06:43:59;91369.47;;;-1.96;70.53
20628;BME280;10473;42.734;24.258;2024-01-15T06:46:25;91357.91;;;-1.14;69.21
20628;BME280;10473;42.734;24.258;2024-01-15T06:48:50;91362.28;;;0.32;65.50
20628;BME280;10473;42.734;24.258;2024-01-15T06:51:16;91359.00;;;1.25;61.22
20628;BME280;10473;42.734;24.258;2024-01-15T06:53:41;91356.72;;;2.29;58.71
20628;BME280;10473;42.734;24.258;2024-01-15T06:56:07;91354.78;;;3.12;53.87
20628;BME280;10473;42.734;24.258;2024-01-15T06:58:33;91347.97;;;3.34;54.05
20628;BME280;10473;42.734;24.258;2024-01-15T07:00:59;91347.41;;;3.60;54.20
20628;BME280;10473;42.734;24.258;2024-01-15T07:03:25;91348.13;;;3.54;51.57
20628;BME280;10473;42.734;24.258;2024-01-15T07:05:50;91344.81;;;2.81;53.88
20628;BME280;10473;42.734;24.258;2024-01-15T07:08:16;91348.78;;;2.54;55.93
20628;BME280;10473;42.734;24.258;2024-01-15T07:10:41;91353.97;;;2.75;55.48
20628;BME280;10473;42.734;24.258;2024-01-15T07:13:08;91351.88;;;2.49;55.20
20628;BME280;10473;42.734;24.258;2024-01-15T07:15:34;91362.72;;;2.21;56.75
20628;BME280;10473;42.734;24.258;2024-01-15T07:17:59;91377.91;;;2.00;56.91
20628;BME280;10473;42.734;24.258;2024-01-15T07:20:25;91387.56;;;1.43;58.67
20628;BME280;10473;42.734;24.258;2024-01-15T07:22:50;91384.47;;;1.71;58.21
20628;BME280;10473;42.734;24.258;2024-01-15T07:25:16;91395.28;;;1.96;57.25
20628;BME280;10473;42.734;24.258;2024-01-15T07:27:42;91397.66;;;2.95;56.31
20628;BME280;10473;42.734;24.258;2024-01-15T07:30:11;91387.00;;;4.14;52.37
20628;BME280;10473;42.734;24.258;2024-01-15T07:32:37;91388.66;;;5.40;48.80
20628;BME280;10473;42.734;24.258;2024-01-15T07:35:03;91376.72;;;5.67;47.83
20628;BME280;10473;42.734;24.258;2024-01-15T07:37:29;91385.88;;;6.16;46.17
20628;BME280;10473;42.734;24.258;2024-01-15T07:39:54;91385.66;;;6.11;45.94
20628;BME280;10473;42.734;24.258;2024-01-15T07:42:20;91388.81;;;6.13;47.11
20628;BME280;10473;42.734;24.258;2024-01-15T07:44:45;91382.09;;;6.58;47.18
20628;BME280;10473;42.734;24.258;2024-01-15T07:47:12;91370.19;;;6.84;46.39
20628;BME280;10473;42.734;24.258;2024-01-15T07:49:38;91370.09;;;7.11;45.56
20628;BME280;10473;42.734;24.258;2024-01-15T07:52:03;91367.56;;;8.13;42.26
20628;BME280;10473;42.734;24.258;2024-01-15T07:54:31;91365.81;;;8.13;43.44
20628;BME280;10473;42.734;24.258;2024-01-15T07:56:58;91363.84;;;7.77;43.51
20628;BME280;10473;42.734;24.258;2024-01-15T07:59:24;91370.59;;;6.68;45.22
20628;BME280;10473;42.734;24.258;2024-01-15T08:01:52;91375.53;;;5.76;49.51
20628;BME280;10473;42.734;24.258;2024-01-15T08:04:17;91384.72;;;5.44;50.17
20628;BME280;10473;42.734;24.258;2024-01-15T08:06:44;91397.16;;;4.92;51.52
20628;BME280;10473;42.734;24.258;2024-01-15T08:09:10;91398.44;;;3.90;54.29
20628;BME280;10473;42.734;24.258;2024-01-15T08:11:36;91393.25;;;2.59;58.12
20628;BME280;10473;42.734;24.258;2024-01-15T08:14:05;91397.50;;;3.18;56.93
20628;BME280;10473;42.734;24.258;2024-01-15T08:16:31;91396.56;;;3.19;56.64
20628;BME280;10473;42.734;24.258;2024-01-15T08:18:57;91406.91;;;2.66;58.69
20628;BME280;10473;42.734;24.258;2024-01-15T08:21:25;91402.31;;;3.06;57.40
20628;BME280;10473;42.734;24.258;2024-01-15T08:23:50;91405.81;;;2.91;57.70
20628;BME280;10473;42.734;24.258;2024-01-15T08:26:17;91401.88;;;2.73;57.91
20628;BME280;10473;42.734;24.258;2024-01-15T08:28:42;91392.19;;;2.68;58.46
20628;BME280;10473;42.734;24.258;2024-01-15T08:31:08;91401.28;;;2.56;58.88
20628;BME280;10473;42.734;24.258;2024-01-15T08:33:34;91402.41;;;2.83;58.18
20628;BME280;10473;42.734;24.258;2024-01-15T08:36:01;91395.03;;;2.59;59.59
20628;BME280;10473;42.734;24.258;2024-01-15T08:38:26;91388.41;;;2.64;59.38
20628;BME280;10473;42.734;24.258;2024-01-15T08:40:52;91393.09;;;2.61;58.69
20628;BME280;10473;42.734;24.258;2024-01-15T08:43:18;91401.06;;;1.90;61.67
20628;BME280;10473;42.734;24.258;2024-01-15T08:45:44;91405.63;;;1.80;62.12
20628;BME280;10473;42.734;24.258;2024-01-15T08:48:10;91386.28;;;2.23;60.38
20628;BME280;10473;42.734;24.258;2024-01-15T08:50:36;91397.72;;;2.13;61.29
20628;BME280;10473;42.734;24.258;2024-01-15T08:53:01;91384.63;;;2.31;60.21
20628;BME280;10473;42.734;24.258;2024-01-15T08:55:27;91384.09;;;2.35;60.69
20628;BME280;10473;42.734;24.258;2024-01-15T08:57:52;91366.66;;;2.54;60.68
20628;BME280;10473;42.734;24.258;2024-01-15T09:00:18;91362.78;;;2.73;59.89
20628;BME280;10473;42.734;24.258;2024-01-15T09:02:44;91359.06;;;2.90;60.32
20628;BME280;10473;42.734;24.258;2024-01-15T09:05:10;91356.19;;;2.63;60.77
20628;BME280;10473;42.734;24.258;2024-01-15T09:07:35;91359.91;;;2.46;61.13
20628;BME280;10473;42.734;24.258;2024-01-15T09:10:01;91352.84;;;2.63;60.35
20628;BME280;10473;42.734;24.258;2024-01-15T09:12:27;91344.00;;;2.95;59.60
20628;BME280;10473;42.734;24.258;2024-01-15T09:14:53;91336.63;;;3.22;59.16
20628;BME280;10473;42.734;24.258;2024-01-15T09:17:22;91334.47;;;3.47;56.50
20628;BME280;10473;42.734;24.258;2024-01-15T09:19:50;91330.69;;;3.86;55.08
20628;BME280;10473;42.734;24.258;2024-01-15T09:22:15;91325.78;;;4.13;52.77
20628;BME280;10473;42.734;24.258;2024-01-15T09:24:47;91325.63;;;4.56;51.53
20628;BME280;10473;42.734;24.258;2024-01-15T09:27:13;91330.44;;;4.72;50.05
20628;BME280;10473;42.734;24.258;2024-01-15T09:29:38;91316.22;;;4.63;49.27
20628;BME280;10473;42.734;24.258;2024-01-15T09:32:06;91310.94;;;4.71;49.75
20628;BME280;10473;42.734;24.258;2024-01-15T09:34:35;91318.38;;;4.66;48.57
20628;BME280;10473;42.734;24.258;2024-01-15T09:37:01;91303.06;;;4.79;48.29
20628;BME280;10473;42.734;24.258;2024-01-15T09:39:27;91281.66;;;4.45;48.25
20628;BME280;10473;42.734;24.258;2024-01-15T09:41:53;91282.44;;;4.46;48.57
20628;BME280;10473;42.734;24.258;2024-01-15T09:44:20;91270.88;;;4.22;48.83
20628;BME280;10473;42.734;24.258;2024-01-15T09:46:49;91254.09;;;4.13;49.26
20628;BME280;10473;42.734;24.258;2024-01-15T09:49:18;91263.97;;;4.16;49.39
20628;BME280;10473;42.734;24.258;2024-01-15T09:51:44;91255.91;;;4.19;48.00
20628;BME280;10473;42.734;24.258;2024-01-15T09:54:10;91252.16;;;4.15;48.40
20628;BME280;10473;42.734;24.258;2024-01-15T09:56:38;91241.13;;;3.86;54.04
20628;BME280;10473;42.734;24.258;2024-01-15T09:59:04;91246.34;;;3.99;53.16
20628;BME280;10473;42.734;24.258;2024-01-15T10:01:31;91248.22;;;4.12;50.96
20628;BME280;10473;42.734;24.258;2024-01-15T10:03:57;91245.28;;;4.22;51.56
20628;BME280;10473;42.734;24.258;2024-01-15T10:06:26;91231.41;;;4.51;49.61
20628;BME280;10473;42.734;24.258;2024-01-15T10:08:56;91215.63;;;5.22;47.59
20628;BME280;10473;42.734;24.258;2024-01-15T10:11:23;91211.50;;;5.61;46.30
20628;BME280;10473;42.734;24.258;2024-01-15T10:13:49;91198.66;;;5.88;46.00
20628;BME280;10473;42.734;24.258;2024-01-15T10:16:19;91199.25;;;6.03;45.19
20628;BME280;10473;42.734;24.258;2024-01-15T10:18:45;91191.63;;;6.35;42.28
20628;BME280;10473;42.734;24.258;2024-01-15T10:21:10;91194.81;;;6.24;41.60
20628;BME280;10473;42.734;24.258;2024-01-15T10:23:36;91183.72;;;6.36;41.51
20628;BME280;10473;42.734;24.258;2024-01-15T10:26:02;91181.44;;;6.08;41.17
20628;BME280;10473;42.734;24.258;2024-01-15T10:28:29;91190.16;;;6.07;41.79
20628;BME280;10473;42.734;24.258;2024-01-15T10:30:58;91173.44;;;6.36;42.06
20628;BME280;10473;42.734;24.258;2024-01-15T10:33:27;91175.47;;;6.28;41.02
20628;BME280;10473;42.734;24.258;2024-01-15T10:36:00;91181.84;;;6.05;41.39
20628;BME280;10473;42.734;24.258;2024-01-15T10:38:31;91194.72;;;5.99;42.11
20628;BME280;10473;42.734;24.258;2024-01-15T10:40:57;91191.34;;;5.78;43.83
20628;BME280;10473;42.734;24.258;2024-01-15T10:43:23;91190.75;;;5.16;47.93
20628;BME280;10473;42.734;24.258;2024-01-15T10:45:52;91196.25;;;4.80;51.32
20628;BME280;10473;42.734;24.258;2024-01-15T10:48:18;91187.22;;;4.90;51.22
20628;BME280;10473;42.734;24.258;2024-01-15T10:50:48;91177.56;;;5.19;51.52
20628;BME280;10473;42.734;24.258;2024-01-15T10:53:16;91166.28;;;5.73;47.82
20628;BME280;10473;42.734;24.258;2024-01-15T10:55:42;91153.03;;;5.83;47.54
20628;BME280;10473;42.734;24.258;2024-01-15T10:58:09;91156.31;;;6.24;45.38
20628;BME280;10473;42.734;24.258;2024-01-15T11:00:35;91154.66;;;5.71;43.45
20628;BME280;10473;42.734;24.258;2024-01-15T11:03:03;91152.69;;;5.40;45.06
20628;BME280;10473;42.734;24.258;2024-01-15T11:05:37;91141.44;;;5.61;45.95
20628;BME280;10473;42.734;24.258;2024-01-15T11:08:06;91138.31;;;5.32;52.14
20628;BME280;10473;42.734;24.258;2024-01-15T11:10:43;91131.81;;;5.36;52.50
20628;BME280;10473;42.734;24.258;2024-01-15T11:13:18;91139.09;;;5.39;52.59
20628;BME280;10473;42.734;24.258;2024-01-15T11:18:35;91146.03;;;5.25;54.01
20628;BME280;10473;42.734;24.258;2024-01-15T11:23:58;91164.34;;;5.29;54.85
20628;BME280;10473;42.734;24.258;2024-01-15T11:29:04;91147.31;;;5.74;54.49
20628;BME280;10473;42.734;24.258;2024-01-15T11:31:57;91144.00;;;5.54;54.62
20628;BME280;10473;42.734;24.258;2024-01-15T11:34:52;91136.94;;;5.36;53.05
20628;BME280;10473;42.734;24.258;2024-01-15T11:37:19;91130.00;;;5.50;53.88
20628;BME280;10473;42.734;24.258;2024-01-15T11:39:46;91133.56;;;5.49;51.90
20628;BME280;10473;42.734;24.258;2024-01-15T11:42:15;91145.03;;;5.13;52.49
20628;BME280;10473;42.734;24.258;2024-01-15T11:44:43;91134.59;;;5.01;55.05
20628;BME280;10473;42.734;24.258;2024-01-15T11:47:13;91142.22;;;4.68;56.75
20628;BME280;10473;42.734;24.258;2024-01-15T11:52:37;91130.28;;;4.27;58.22
20628;BME280;10473;42.734;24.258;2024-01-15T11:55:35;91132.56;;;4.70;56.38
20628;BME280;10473;42.734;24.258;2024-01-15T11:58:02;91142.84;;;4.90;54.89
20628;BME280;10473;42.734;24.258;2024-01-15T12:00:28;91133.75;;;4.87;51.21
20628;BME280;10473;42.734;24.258;2024-01-15T12:02:54;91146.22;;;5.17;51.05
20628;BME280;10473;42.734;24.258;2024-01-15T12:05:23;91130.44;;;5.33;49.76
20628;BME280;10473;42.734;24.258;2024-01-15T12:07:49;91140.50;;;5.08;52.00
20628;BME280;10473;42.734;24.258;2024-01-15T12:10:17;91127.88;;;5.00;50.79
20628;BME280;10473;42.734;24.258;2024-01-15T12:15:23;91132.09;;;4.33;51.60
20628;BME280;10473;42.734;24.258;2024-01-15T12:17:49;91126.06;;;4.61;51.27
20628;BME280;10473;42.734;24.258;2024-01-15T12:20:14;91122.44;;;4.35;50.99
20628;BME280;10473;42.734;24.258;2024-01-15T12:22:41;91124.50;;;3.98;52.66
20628;BME280;10473;42.734;24.258;2024-01-15T12:25:07;91123.81;;;4.31;51.07
20628;BME280;10473;42.734;24.258;2024-01-15T12:27:33;91123.22;;;4.29;51.71
20628;BME280;10473;42.734;24.258;2024-01-15T12:29:59;91127.38;;;4.30;52.03
20628;BME280;10473;42.734;24.258;2024-01-15T12:32:25;91130.50;;;4.19;51.76
20628;BME280;10473;42.734;24.258;2024-01-15T12:34:51;91125.75;;;4.22;51.71
20628;BME280;10473;42.734;24.258;2024-01-15T12:37:19;91121.59;;;4.15;51.23
20628;BME280;10473;42.734;24.258;2024-01-15T12:39:45;91116.19;;;3.89;52.66
20628;BME280;10473;42.734;24.258;2024-01-15T12:42:13;91120.09;;;3.85;52.80
20628;BME280;10473;42.734;24.258;2024-01-15T12:44:39;91108.88;;;3.80;52.97
20628;BME280;10473;42.734;24.258;2024-01-15T12:47:05;91110.63;;;3.79;53.54
20628;BME280;10473;42.734;24.258;2024-01-15T12:49:30;91104.88;;;3.70;54.34
20628;BME280;10473;42.734;24.258;2024-01-15T12:51:57;91105.13;;;3.76;53.69
20628;BME280;10473;42.734;24.258;2024-01-15T12:54:23;91108.81;;;3.32;55.89
20628;BME280;10473;42.734;24.258;2024-01-15T12:56:50;91091.25;;;3.57;55.04
20628;BME280;10473;42.734;24.258;2024-01-15T12:59:16;91098.03;;;3.71;54.19
20628;BME280;10473;42.734;24.258;2024-01-15T13:01:43;91100.16;;;3.33;54.69
20628;BME280;10473;42.734;24.258;2024-01-15T13:04:09;91098.09;;;3.49;53.72